PTKR  Koror, Palau, NWS Office Airport

Add Bookmark

Federated States of Micronesia

Status
Operational
Latitude Longitude
7° 19' 48" N 134° 28' 47" E
7.330000 134.480000
Local (DST + 9) UTC (GMT + 9)
Jan 30, 2015 04:51 Jan 30, 2015 07:51
Sunrise-Sunset Local UTC
Begin Civil Twilight 05:58 20:58
Sunrise 06:20 21:20
Sunset 06:10 09:10
End Civil Twilight 06:32 09:32

Current Weather

METAR Observed VFR
PTKR 300651Z 07005KT 15SM FEW018TCU BKN350 31/24 A2979 Fri, Jan 30, 2015 @ 06:51 UTC
(1 Hour ago)
Visual Flight Rules
Wind Visibility Clouds Conditions
070° at 5 knots (9 kph) 24000 meters
  • Few at 1,800' AGL
  • Broken at 35,000' AGL
  • No significant weather
Temperatures Readings Precipitation
Current Temp 31°C (88°F)
Dewpoint 24°C (75°F)
Heat Index 37°C (98°F)
Humidity 66%
Altimeter 29.79"Hg
Sea Level Pressure 1008.9mb
Field Elevation 98.43'
None Recorded

Additional weather within a 92.6km radius of PTKR

Map ICAO Location
PTRO 8.1km N (360°)

24 Hour Weather History

Loading
-

24 Hour Weather Graphs

Loading
-

CheckWX.com is intended as a tool to help pilots better visualize weather data. It is not intended as a substitute for an official weather briefing obtained from a Flight Service Station. CheckWX.com does not meet the FAA requirements for an official pre-flight weather briefing. Therefore, it's important that pilots still call and obtain an official FSS pre-flight weather briefing.